sensor_id;sensor_type;location;lat;lon;timestamp;P1;durP1;ratioP1;P2;durP2;ratioP2
69636;SDS011;56860;51.144;16.954;2024-02-14T00:00:30;17.9;;;30.2;;
69636;SDS011;56860;51.144;16.954;2024-02-14T00:01:30;17.9;;;30.2;;
69636;SDS011;56860;51.144;16.954;2024-02-14T00:02:30;17.8;;;30.6;;
69636;SDS011;56860;51.144;16.954;2024-02-14T00:03:30;17.8;;;30.6;;
69636;SDS011;56860;51.144;16.954;2024-02-14T00:04:30;17.8;;;30.6;;
69636;SDS011;56860;51.144;16.954;2024-02-14T00:05:30;16.9;;;30.3;;
69636;SDS011;56860;51.144;16.954;2024-02-14T00:06:34;16.9;;;30.3;;
69636;SDS011;56860;51.144;16.954;2024-02-14T00:07:30;16.9;;;30.3;;
69636;SDS011;56860;51.144;16.954;2024-02-14T00:08:30;17.0;;;30.8;;
69636;SDS011;56860;51.144;16.954;2024-02-14T00:09:30;17.0;;;30.8;;
69636;SDS011;56860;51.144;16.954;2024-02-14T00:10:30;17.0;;;30.8;;
69636;SDS011;56860;51.144;16.954;2024-02-14T00:11:30;16.9;;;31.5;;
69636;SDS011;56860;51.144;16.954;2024-02-14T00:12:31;16.9;;;31.5;;
69636;SDS011;56860;51.144;16.954;2024-02-14T00:13:30;16.9;;;31.5;;
69636;SDS011;56860;51.144;16.954;2024-02-14T00:14:30;17.6;;;31.2;;
69636;SDS011;56860;51.144;16.954;2024-02-14T00:15:30;17.4;;;31.6;;
69636;SDS011;56860;51.144;16.954;2024-02-14T00:16:30;17.4;;;31.6;;
69636;SDS011;56860;51.144;16.954;2024-02-14T00:17:30;13.2;;;31.0;;
69636;SDS011;56860;51.144;16.954;2024-02-14T00:18:30;13.2;;;31.0;;
69636;SDS011;56860;51.144;16.954;2024-02-14T00:19:30;16.5;;;28.1;;
69636;SDS011;56860;51.144;16.954;2024-02-14T00:20:30;16.5;;;28.1;;
69636;SDS011;56860;51.144;16.954;2024-02-14T00:21:30;17.1;;;28.7;;
69636;SDS011;56860;51.144;16.954;2024-02-14T00:22:30;17.1;;;28.7;;
69636;SDS011;56860;51.144;16.954;2024-02-14T00:23:30;17.1;;;28.7;;
69636;SDS011;56860;51.144;16.954;2024-02-14T00:24:30;17.4;;;32.4;;
69636;SDS011;56860;51.144;16.954;2024-02-14T00:25:30;17.4;;;32.4;;
69636;SDS011;56860;51.144;16.954;2024-02-14T00:26:30;17.4;;;32.4;;
69636;SDS011;56860;51.144;16.954;2024-02-14T00:27:30;17.6;;;29.1;;
69636;SDS011;56860;51.144;16.954;2024-02-14T00:28:30;17.6;;;29.1;;
69636;SDS011;56860;51.144;16.954;2024-02-14T00:29:31;17.6;;;29.1;;
69636;SDS011;56860;51.144;16.954;2024-02-14T00:30:30;17.6;;;30.5;;
69636;SDS011;56860;51.144;16.954;2024-02-14T00:31:30;17.6;;;30.5;;
69636;SDS011;56860;51.144;16.954;2024-02-14T00:32:30;17.6;;;30.5;;
69636;SDS011;56860;51.144;16.954;2024-02-14T00:33:30;17.2;;;26.3;;
69636;SDS011;56860;51.144;16.954;2024-02-14T00:34:30;17.2;;;26.3;;
69636;SDS011;56860;51.144;16.954;2024-02-14T00:35:30;17.2;;;26.3;;
69636;SDS011;56860;51.144;16.954;2024-02-14T00:36:30;17.1;;;29.7;;
69636;SDS011;56860;51.144;16.954;2024-02-14T00:37:30;17.1;;;29.7;;
69636;SDS011;56860;51.144;16.954;2024-02-14T00:38:30;17.1;;;29.7;;
69636;SDS011;56860;51.144;16.954;2024-02-14T00:39:30;18.0;;;29.7;;
69636;SDS011;56860;51.144;16.954;2024-02-14T00:40:31;18.0;;;29.7;;
69636;SDS011;56860;51.144;16.954;2024-02-14T00:41:30;18.0;;;29.7;;
69636;SDS011;56860;51.144;16.954;2024-02-14T00:42:30;17.5;;;29.4;;
69636;SDS011;56860;51.144;16.954;2024-02-14T00:43:30;16.7;;;28.1;;
69636;SDS011;56860;51.144;16.954;2024-02-14T00:44:30;16.7;;;28.1;;
69636;SDS011;56860;51.144;16.954;2024-02-14T00:45:30;16.7;;;28.1;;
69636;SDS011;56860;51.144;16.954;2024-02-14T00:46:30;16.8;;;31.1;;
69636;SDS011;56860;51.144;16.954;2024-02-14T00:47:32;16.8;;;31.1;;
69636;SDS011;56860;51.144;16.954;2024-02-14T00:48:31;16.8;;;31.1;;
69636;SDS011;56860;51.144;16.954;2024-02-14T00:49:30;16.5;;;26.3;;
69636;SDS011;56860;51.144;16.954;2024-02-14T00:50:30;16.5;;;26.3;;
69636;SDS011;56860;51.144;16.954;2024-02-14T00:51:31;16.5;;;26.3;;
69636;SDS011;56860;51.144;16.954;2024-02-14T00:52:30;17.5;;;30.9;;
69636;SDS011;56860;51.144;16.954;2024-02-14T00:53:30;17.5;;;30.9;;
69636;SDS011;56860;51.144;16.954;2024-02-14T00:54:30;17.5;;;30.9;;
69636;SDS011;56860;51.144;16.954;2024-02-14T00:55:30;18.6;;;30.3;;
69636;SDS011;56860;51.144;16.954;2024-02-14T00:56:30;18.6;;;30.3;;
69636;SDS011;56860;51.144;16.954;2024-02-14T00:57:30;18.6;;;30.3;;
69636;SDS011;56860;51.144;16.954;2024-02-14T00:58:30;18.6;;;31.2;;
69636;SDS011;56860;51.144;16.954;2024-02-14T00:59:30;18.6;;;31.2;;
69636;SDS011;56860;51.144;16.954;2024-02-14T01:00:30;18.6;;;31.2;;
69636;SDS011;56860;51.144;16.954;2024-02-14T01:01:30;17.4;;;31.5;;
69636;SDS011;56860;51.144;16.954;2024-02-14T01:02:30;17.4;;;31.5;;
69636;SDS011;56860;51.144;16.954;2024-02-14T01:03:30;17.4;;;31.5;;
69636;SDS011;56860;51.144;16.954;2024-02-14T01:04:30;17.9;;;30.8;;
69636;SDS011;56860;51.144;16.954;2024-02-14T01:05:30;17.9;;;30.8;;
69636;SDS011;56860;51.144;16.954;2024-02-14T01:06:30;17.9;;;30.8;;
69636;SDS011;56860;51.144;16.954;2024-02-14T01:07:30;19.0;;;34.7;;
69636;SDS011;56860;51.144;16.954;2024-02-14T01:08:30;19.0;;;34.7;;
69636;SDS011;56860;51.144;16.954;2024-02-14T01:09:30;19.0;;;34.7;;
69636;SDS011;56860;51.144;16.954;2024-02-14T01:10:30;18.5;;;32.2;;
69636;SDS011;56860;51.144;16.954;2024-02-14T01:11:30;18.5;;;32.2;;
69636;SDS011;56860;51.144;16.954;2024-02-14T01:12:30;18.5;;;32.2;;
69636;SDS011;56860;51.144;16.954;2024-02-14T01:13:30;19.6;;;33.3;;
69636;SDS011;56860;51.144;16.954;2024-02-14T01:14:31;19.1;;;32.5;;
69636;SDS011;56860;51.144;16.954;2024-02-14T01:15:30;19.1;;;32.5;;
69636;SDS011;56860;51.144;16.954;2024-02-14T01:16:30;16.3;;;33.9;;
69636;SDS011;56860;51.144;16.954;2024-02-14T01:17:30;20.8;;;37.2;;
69636;SDS011;56860;51.144;16.954;2024-02-14T01:18:30;20.8;;;37.2;;
69636;SDS011;56860;51.144;16.954;2024-02-14T01:19:30;20.8;;;37.2;;
69636;SDS011;56860;51.144;16.954;2024-02-14T01:20:30;21.0;;;39.1;;
69636;SDS011;56860;51.144;16.954;2024-02-14T01:21:30;21.0;;;39.1;;
69636;SDS011;56860;51.144;16.954;2024-02-14T01:22:30;21.0;;;39.1;;
69636;SDS011;56860;51.144;16.954;2024-02-14T01:23:30;20.8;;;34.8;;
69636;SDS011;56860;51.144;16.954;2024-02-14T01:24:30;20.8;;;34.8;;
69636;SDS011;56860;51.144;16.954;2024-02-14T01:25:30;20.8;;;34.8;;
69636;SDS011;56860;51.144;16.954;2024-02-14T01:26:30;21.1;;;39.3;;
69636;SDS011;56860;51.144;16.954;2024-02-14T01:27:30;21.1;;;39.3;;
69636;SDS011;56860;51.144;16.954;2024-02-14T01:28:30;21.1;;;39.3;;
69636;SDS011;56860;51.144;16.954;2024-02-14T01:29:30;21.1;;;41.3;;
69636;SDS011;56860;51.144;16.954;2024-02-14T01:30:30;21.1;;;41.3;;
69636;SDS011;56860;51.144;16.954;2024-02-14T01:31:30;21.1;;;41.3;;
69636;SDS011;56860;51.144;16.954;2024-02-14T01:32:30;20.8;;;39.0;;
69636;SDS011;56860;51.144;16.954;2024-02-14T01:33:30;20.8;;;39.0;;
69636;SDS011;56860;51.144;16.954;2024-02-14T01:34:30;20.8;;;39.0;;
69636;SDS011;56860;51.144;16.954;2024-02-14T01:35:30;21.6;;;39.8;;
69636;SDS011;56860;51.144;16.954;2024-02-14T01:36:30;21.6;;;39.8;;
69636;SDS011;56860;51.144;16.954;2024-02-14T01:37:30;21.6;;;39.8;;
69636;SDS011;56860;51.144;16.954;2024-02-14T01:38:31;21.1;;;37.0;;
69636;SDS011;56860;51.144;16.954;2024-02-14T01:39:30;21.1;;;37.0;;
69636;SDS011;56860;51.144;16.954;2024-02-14T01:40:30;21.1;;;37.0;;
69636;SDS011;56860;51.144;16.954;2024-02-14T01:41:30;21.4;;;38.2;;
69636;SDS011;56860;51.144;16.954;2024-02-14T01:42:30;21.4;;;38.2;;
69636;SDS011;56860;51.144;16.954;2024-02-14T01:43:30;21.4;;;38.2;;
69636;SDS011;56860;51.144;16.954;2024-02-14T01:44:30;21.7;;;40.6;;
69636;SDS011;56860;51.144;16.954;2024-02-14T01:45:30;21.1;;;40.1;;
69636;SDS011;56860;51.144;16.954;2024-02-14T01:46:30;21.1;;;40.1;;
69636;SDS011;56860;51.144;16.954;2024-02-14T01:47:30;16.6;;;25.5;;
69636;SDS011;56860;51.144;16.954;2024-02-14T01:48:30;21.6;;;37.9;;
69636;SDS011;56860;51.144;16.954;2024-02-14T01:49:30;21.6;;;37.9;;
69636;SDS011;56860;51.144;16.954;2024-02-14T01:50:30;21.6;;;37.9;;
69636;SDS011;56860;51.144;16.954;2024-02-14T01:51:30;22.1;;;41.8;;
69636;SDS011;56860;51.144;16.954;2024-02-14T01:52:30;22.1;;;41.8;;
69636;SDS011;56860;51.144;16.954;2024-02-14T01:53:30;22.1;;;41.8;;
69636;SDS011;56860;51.144;16.954;2024-02-14T01:54:30;22.1;;;41.8;;
69636;SDS011;56860;51.144;16.954;2024-02-14T01:55:30;22.1;;;41.8;;
69636;SDS011;56860;51.144;16.954;2024-02-14T01:56:30;22.1;;;41.8;;
69636;SDS011;56860;51.144;16.954;2024-02-14T01:57:30;22.3;;;40.8;;
69636;SDS011;56860;51.144;16.954;2024-02-14T01:58:30;22.3;;;40.8;;
69636;SDS011;56860;51.144;16.954;2024-02-14T01:59:30;22.3;;;40.8;;
69636;SDS011;56860;51.144;16.954;2024-02-14T02:00:30;22.4;;;39.1;;
69636;SDS011;56860;51.144;16.954;2024-02-14T02:01:30;22.4;;;39.1;;
69636;SDS011;56860;51.144;16.954;2024-02-14T02:02:30;22.4;;;39.1;;
69636;SDS011;56860;51.144;16.954;2024-02-14T02:03:30;23.7;;;41.8;;
69636;SDS011;56860;51.144;16.954;2024-02-14T02:04:30;23.7;;;41.8;;
69636;SDS011;56860;51.144;16.954;2024-02-14T02:05:30;23.7;;;41.8;;
69636;SDS011;56860;51.144;16.954;2024-02-14T02:06:30;22.9;;;41.4;;
69636;SDS011;56860;51.144;16.954;2024-02-14T02:07:31;22.9;;;41.5;;
69636;SDS011;56860;51.144;16.954;2024-02-14T02:08:30;22.9;;;41.5;;
69636;SDS011;56860;51.144;16.954;2024-02-14T02:09:30;22.9;;;41.5;;
69636;SDS011;56860;51.144;16.954;2024-02-14T02:10:30;23.3;;;41.0;;
69636;SDS011;56860;51.144;16.954;2024-02-14T02:11:30;23.3;;;41.0;;
69636;SDS011;56860;51.144;16.954;2024-02-14T02:12:30;23.3;;;41.0;;
69636;SDS011;56860;51.144;16.954;2024-02-14T02:13:30;24.0;;;43.9;;
69636;SDS011;56860;51.144;16.954;2024-02-14T02:14:30;24.0;;;43.9;;
69636;SDS011;56860;51.144;16.954;2024-02-14T02:15:30;24.0;;;43.9;;
69636;SDS011;56860;51.144;16.954;2024-02-14T02:16:30;24.4;;;48.9;;
69636;SDS011;56860;51.144;16.954;2024-02-14T02:17:30;24.4;;;48.9;;
69636;SDS011;56860;51.144;16.954;2024-02-14T02:18:30;24.4;;;48.9;;
69636;SDS011;56860;51.144;16.954;2024-02-14T02:19:30;24.1;;;44.1;;
69636;SDS011;56860;51.144;16.954;2024-02-14T02:20:30;24.1;;;44.1;;
69636;SDS011;56860;51.144;16.954;2024-02-14T02:21:30;24.1;;;44.1;;
69636;SDS011;56860;51.144;16.954;2024-02-14T02:22:30;24.3;;;52.1;;
69636;SDS011;56860;51.144;16.954;2024-02-14T02:23:30;24.3;;;52.1;;
69636;SDS011;56860;51.144;16.954;2024-02-14T02:24:30;24.3;;;52.1;;
69636;SDS011;56860;51.144;16.954;2024-02-14T02:25:30;24.1;;;43.2;;
69636;SDS011;56860;51.144;16.954;2024-02-14T02:26:30;24.1;;;43.2;;
69636;SDS011;56860;51.144;16.954;2024-02-14T02:27:30;24.1;;;43.2;;
69636;SDS011;56860;51.144;16.954;2024-02-14T02:28:30;24.2;;;45.9;;
69636;SDS011;56860;51.144;16.954;2024-02-14T02:29:30;24.2;;;45.9;;
69636;SDS011;56860;51.144;16.954;2024-02-14T02:30:30;24.2;;;45.9;;
69636;SDS011;56860;51.144;16.954;2024-02-14T02:31:30;24.6;;;45.9;;
69636;SDS011;56860;51.144;16.954;2024-02-14T02:32:30;24.6;;;45.9;;
69636;SDS011;56860;51.144;16.954;2024-02-14T02:35:34;23.9;;;45.4;;
69636;SDS011;56860;51.144;16.954;2024-02-14T02:36:30;23.9;;;45.4;;
69636;SDS011;56860;51.144;16.954;2024-02-14T02:37:31;23.9;;;45.4;;
69636;SDS011;56860;51.144;16.954;2024-02-14T02:38:30;22.3;;;39.1;;
69636;SDS011;56860;51.144;16.954;2024-02-14T02:39:30;22.3;;;39.1;;
69636;SDS011;56860;51.144;16.954;2024-02-14T02:40:30;22.3;;;39.1;;
69636;SDS011;56860;51.144;16.954;2024-02-14T02:41:30;23.3;;;44.2;;
69636;SDS011;56860;51.144;16.954;2024-02-14T02:42:30;23.3;;;44.2;;
69636;SDS011;56860;51.144;16.954;2024-02-14T02:43:30;23.3;;;44.2;;
69636;SDS011;56860;51.144;16.954;2024-02-14T02:44:30;23.3;;;40.6;;
69636;SDS011;56860;51.144;16.954;2024-02-14T02:45:30;23.3;;;40.6;;
69636;SDS011;56860;51.144;16.954;2024-02-14T02:46:31;23.3;;;40.6;;
69636;SDS011;56860;51.144;16.954;2024-02-14T02:47:30;24.9;;;41.6;;
69636;SDS011;56860;51.144;16.954;2024-02-14T02:48:30;24.9;;;41.6;;
69636;SDS011;56860;51.144;16.954;2024-02-14T02:49:30;24.9;;;41.6;;
69636;SDS011;56860;51.144;16.954;2024-02-14T02:50:30;23.9;;;42.5;;
69636;SDS011;56860;51.144;16.954;2024-02-14T02:51:30;23.9;;;42.5;;
69636;SDS011;56860;51.144;16.954;2024-02-14T02:52:30;23.9;;;42.5;;
69636;SDS011;56860;51.144;16.954;2024-02-14T02:53:30;24.5;;;44.6;;
69636;SDS011;56860;51.144;16.954;2024-02-14T02:54:30;24.5;;;44.6;;
69636;SDS011;56860;51.144;16.954;2024-02-14T02:55:30;24.5;;;44.6;;
69636;SDS011;56860;51.144;16.954;2024-02-14T02:56:30;23.5;;;46.5;;
69636;SDS011;56860;51.144;16.954;2024-02-14T02:57:30;23.5;;;46.5;;
69636;SDS011;56860;51.144;16.954;2024-02-14T02:58:31;23.5;;;46.5;;
69636;SDS011;56860;51.144;16.954;2024-02-14T02:59:30;24.1;;;41.7;;
69636;SDS011;56860;51.144;16.954;2024-02-14T03:00:31;24.1;;;41.7;;
69636;SDS011;56860;51.144;16.954;2024-02-14T03:01:35;23.6;;;41.1;;
69636;SDS011;56860;51.144;16.954;2024-02-14T03:02:31;23.6;;;41.1;;
69636;SDS011;56860;51.144;16.954;2024-02-14T03:03:30;25.3;;;43.6;;
69636;SDS011;56860;51.144;16.954;2024-02-14T03:04:30;25.3;;;43.6;;
69636;SDS011;56860;51.144;16.954;2024-02-14T03:05:30;25.3;;;43.6;;
69636;SDS011;56860;51.144;16.954;2024-02-14T03:06:31;23.3;;;48.8;;
69636;SDS011;56860;51.144;16.954;2024-02-14T03:07:30;23.3;;;48.8;;
69636;SDS011;56860;51.144;16.954;2024-02-14T03:08:30;23.3;;;48.8;;
69636;SDS011;56860;51.144;16.954;2024-02-14T03:09:30;24.2;;;42.1;;
69636;SDS011;56860;51.144;16.954;2024-02-14T03:10:30;24.2;;;42.1;;
69636;SDS011;56860;51.144;16.954;2024-02-14T03:11:30;24.2;;;42.1;;
69636;SDS011;56860;51.144;16.954;2024-02-14T03:12:31;23.2;;;43.6;;
69636;SDS011;56860;51.144;16.954;2024-02-14T03:13:31;23.2;;;43.6;;
69636;SDS011;56860;51.144;16.954;2024-02-14T03:14:32;23.2;;;43.6;;
69636;SDS011;56860;51.144;16.954;2024-02-14T03:15:30;25.3;;;44.6;;
69636;SDS011;56860;51.144;16.954;2024-02-14T03:16:30;25.3;;;44.6;;
69636;SDS011;56860;51.144;16.954;2024-02-14T03:17:30;25.3;;;44.6;;
69636;SDS011;56860;51.144;16.954;2024-02-14T03:18:30;27.1;;;50.2;;
69636;SDS011;56860;51.144;16.954;2024-02-14T03:19:30;27.1;;;50.2;;
69636;SDS011;56860;51.144;16.954;2024-02-14T03:20:30;27.1;;;50.2;;
69636;SDS011;56860;51.144;16.954;2024-02-14T03:21:30;25.1;;;50.0;;
69636;SDS011;56860;51.144;16.954;2024-02-14T03:22:30;25.1;;;50.0;;
69636;SDS011;56860;51.144;16.954;2024-02-14T03:23:31;25.1;;;50.0;;
69636;SDS011;56860;51.144;16.954;2024-02-14T03:24:30;23.9;;;40.1;;
69636;SDS011;56860;51.144;16.954;2024-02-14T03:25:30;23.9;;;40.1;;
69636;SDS011;56860;51.144;16.954;2024-02-14T03:26:30;23.9;;;40.1;;
69636;SDS011;56860;51.144;16.954;2024-02-14T03:27:30;24.4;;;44.7;;
69636;SDS011;56860;51.144;16.954;2024-02-14T03:28:30;24.4;;;44.7;;
69636;SDS011;56860;51.144;16.954;2024-02-14T03:29:31;24.4;;;44.7;;
69636;SDS011;56860;51.144;16.954;2024-02-14T03:30:30;29.0;;;52.2;;
69636;SDS011;56860;51.144;16.954;2024-02-14T03:31:30;28.4;;;50.9;;
69636;SDS011;56860;51.144;16.954;2024-02-14T03:32:30;28.4;;;50.9;;
69636;SDS011;56860;51.144;16.954;2024-02-14T03:33:30;25.3;;;38.7;;
69636;SDS011;56860;51.144;16.954;2024-02-14T03:34:31;29.5;;;56.7;;
69636;SDS011;56860;51.144;16.954;2024-02-14T03:35:31;29.5;;;56.7;;
69636;SDS011;56860;51.144;16.954;2024-02-14T03:36:31;29.5;;;56.7;;
69636;SDS011;56860;51.144;16.954;2024-02-14T03:37:31;30.0;;;59.4;;
69636;SDS011;56860;51.144;16.954;2024-02-14T03:38:31;30.0;;;59.4;;
69636;SDS011;56860;51.144;16.954;2024-02-14T03:39:30;30.0;;;59.4;;
69636;SDS011;56860;51.144;16.954;2024-02-14T03:40:30;31.1;;;61.1;;
69636;SDS011;56860;51.144;16.954;2024-02-14T03:41:31;31.1;;;61.1;;
69636;SDS011;56860;51.144;16.954;2024-02-14T03:42:30;31.1;;;61.1;;
69636;SDS011;56860;51.144;16.954;2024-02-14T03:43:30;27.9;;;51.3;;
69636;SDS011;56860;51.144;16.954;2024-02-14T03:44:30;27.9;;;51.3;;
69636;SDS011;56860;51.144;16.954;2024-02-14T03:45:31;27.9;;;51.3;;
69636;SDS011;56860;51.144;16.954;2024-02-14T03:46:30;27.8;;;51.0;;
69636;SDS011;56860;51.144;16.954;2024-02-14T03:47:31;27.8;;;51.0;;
69636;SDS011;56860;51.144;16.954;2024-02-14T03:48:30;27.8;;;51.0;;
69636;SDS011;56860;51.144;16.954;2024-02-14T03:49:30;28.9;;;54.2;;
69636;SDS011;56860;51.144;16.954;2024-02-14T03:50:31;28.9;;;54.2;;
69636;SDS011;56860;51.144;16.954;2024-02-14T03:51:31;28.9;;;54.2;;
69636;SDS011;56860;51.144;16.954;2024-02-14T03:52:31;30.6;;;61.9;;
69636;SDS011;56860;51.144;16.954;2024-02-14T03:53:31;30.6;;;61.9;;
69636;SDS011;56860;51.144;16.954;2024-02-14T03:54:31;30.6;;;61.9;;
69636;SDS011;56860;51.144;16.954;2024-02-14T03:55:31;29.9;;;53.7;;
69636;SDS011;56860;51.144;16.954;2024-02-14T03:56:31;29.9;;;53.7;;
69636;SDS011;56860;51.144;16.954;2024-02-14T03:57:31;29.9;;;53.7;;
69636;SDS011;56860;51.144;16.954;2024-02-14T03:58:31;31.2;;;60.5;;
69636;SDS011;56860;51.144;16.954;2024-02-14T03:59:31;31.2;;;60.5;;
69636;SDS011;56860;51.144;16.954;2024-02-14T04:00:31;31.2;;;60.5;;
69636;SDS011;56860;51.144;16.954;2024-02-14T04:01:31;27.6;;;53.0;;
69636;SDS011;56860;51.144;16.954;2024-02-14T04:02:31;27.6;;;53.0;;
69636;SDS011;56860;51.144;16.954;2024-02-14T04:03:31;27.6;;;53.0;;
69636;SDS011;56860;51.144;16.954;2024-02-14T04:04:31;23.5;;;46.1;;
69636;SDS011;56860;51.144;16.954;2024-02-14T04:05:31;23.5;;;46.1;;
69636;SDS011;56860;51.144;16.954;2024-02-14T04:06:31;23.5;;;46.1;;
69636;SDS011;56860;51.144;16.954;2024-02-14T04:07:31;24.7;;;53.1;;
69636;SDS011;56860;51.144;16.954;2024-02-14T04:08:31;24.3;;;50.1;;
69636;SDS011;56860;51.144;16.954;2024-02-14T04:09:32;24.3;;;50.1;;
69636;SDS011;56860;51.144;16.954;2024-02-14T04:10:31;27.3;;;55.4;;
69636;SDS011;56860;51.144;16.954;2024-02-14T04:11:31;27.0;;;52.4;;
69636;SDS011;56860;51.144;16.954;2024-02-14T04:12:31;27.0;;;52.4;;
69636;SDS011;56860;51.144;16.954;2024-02-14T04:13:31;27.0;;;52.4;;
69636;SDS011;56860;51.144;16.954;2024-02-14T04:14:31;28.2;;;50.1;;
69636;SDS011;56860;51.144;16.954;2024-02-14T04:15:31;28.2;;;50.1;;
69636;SDS011;56860;51.144;16.954;2024-02-14T04:16:31;28.2;;;50.1;;
69636;SDS011;56860;51.144;16.954;2024-02-14T04:17:31;29.9;;;58.0;;
69636;SDS011;56860;51.144;16.954;2024-02-14T04:18:31;29.9;;;58.0;;
69636;SDS011;56860;51.144;16.954;2024-02-14T04:19:31;29.9;;;58.0;;
69636;SDS011;56860;51.144;16.954;2024-02-14T04:20:31;27.9;;;53.8;;
69636;SDS011;56860;51.144;16.954;2024-02-14T04:21:31;27.9;;;53.8;;
69636;SDS011;56860;51.144;16.954;2024-02-14T04:22:31;27.9;;;53.8;;
69636;SDS011;56860;51.144;16.954;2024-02-14T04:23:31;29.7;;;61.1;;
69636;SDS011;56860;51.144;16.954;2024-02-14T04:24:32;29.7;;;61.1;;
69636;SDS011;56860;51.144;16.954;2024-02-14T04:25:31;29.7;;;61.1;;
69636;SDS011;56860;51.144;16.954;2024-02-14T04:26:31;31.5;;;60.5;;
69636;SDS011;56860;51.144;16.954;2024-02-14T04:27:31;31.5;;;60.5;;
69636;SDS011;56860;51.144;16.954;2024-02-14T04:28:31;31.5;;;60.5;;
69636;SDS011;56860;51.144;16.954;2024-02-14T04:29:31;31.0;;;63.9;;
69636;SDS011;56860;51.144;16.954;2024-02-14T04:30:31;31.0;;;63.9;;
69636;SDS011;56860;51.144;16.954;2024-02-14T04:31:31;31.0;;;63.9;;
69636;SDS011;56860;51.144;16.954;2024-02-14T04:32:31;31.4;;;59.0;;
69636;SDS011;56860;51.144;16.954;2024-02-14T04:33:31;31.4;;;59.0;;
69636;SDS011;56860;51.144;16.954;2024-02-14T04:34:31;31.4;;;59.0;;
69636;SDS011;56860;51.144;16.954;2024-02-14T04:35:31;32.7;;;63.7;;
69636;SDS011;56860;51.144;16.954;2024-02-14T04:36:31;32.7;;;63.7;;
69636;SDS011;56860;51.144;16.954;2024-02-14T04:37:32;32.7;;;63.7;;
69636;SDS011;56860;51.144;16.954;2024-02-14T04:38:31;32.4;;;57.2;;
69636;SDS011;56860;51.144;16.954;2024-02-14T04:39:31;32.1;;;55.7;;
69636;SDS011;56860;51.144;16.954;2024-02-14T04:40:31;32.1;;;55.7;;
69636;SDS011;56860;51.144;16.954;2024-02-14T04:41:31;32.1;;;55.7;;
69636;SDS011;56860;51.144;16.954;2024-02-14T04:42:31;31.5;;;61.4;;
69636;SDS011;56860;51.144;16.954;2024-02-14T04:43:31;31.5;;;61.4;;
69636;SDS011;56860;51.144;16.954;2024-02-14T04:44:31;31.5;;;61.4;;
69636;SDS011;56860;51.144;16.954;2024-02-14T04:45:31;29.6;;;55.3;;
69636;SDS011;56860;51.144;16.954;2024-02-14T04:46:31;29.6;;;55.3;;
69636;SDS011;56860;51.144;16.954;2024-02-14T04:47:31;29.6;;;55.3;;
69636;SDS011;56860;51.144;16.954;2024-02-14T04:48:31;30.6;;;53.0;;
69636;SDS011;56860;51.144;16.954;2024-02-14T04:49:31;30.6;;;53.0;;
69636;SDS011;56860;51.144;16.954;2024-02-14T04:50:31;30.6;;;53.0;;
69636;SDS011;56860;51.144;16.954;2024-02-14T04:51:31;30.4;;;58.6;;
69636;SDS011;56860;51.144;16.954;2024-02-14T04:52:31;30.4;;;58.6;;
69636;SDS011;56860;51.144;16.954;2024-02-14T04:53:31;30.4;;;58.6;;
69636;SDS011;56860;51.144;16.954;2024-02-14T04:54:31;31.0;;;61.1;;
69636;SDS011;56860;51.144;16.954;2024-02-14T04:55:31;31.0;;;61.1;;
69636;SDS011;56860;51.144;16.954;2024-02-14T04:56:31;31.0;;;61.1;;
69636;SDS011;56860;51.144;16.954;2024-02-14T04:57:31;30.0;;;55.1;;
69636;SDS011;56860;51.144;16.954;2024-02-14T04:58:31;30.0;;;55.1;;
69636;SDS011;56860;51.144;16.954;2024-02-14T04:59:31;30.0;;;55.1;;
69636;SDS011;56860;51.144;16.954;2024-02-14T05:00:31;33.7;;;70.4;;
69636;SDS011;56860;51.144;16.954;2024-02-14T05:01:31;33.3;;;69.7;;
69636;SDS011;56860;51.144;16.954;2024-02-14T05:02:31;33.3;;;69.7;;
69636;SDS011;56860;51.144;16.954;2024-02-14T05:03:31;35.7;;;68.3;;
69636;SDS011;56860;51.144;16.954;2024-02-14T05:04:31;35.5;;;72.8;;
69636;SDS011;56860;51.144;16.954;2024-02-14T05:05:31;35.5;;;72.8;;
69636;SDS011;56860;51.144;16.954;2024-02-14T05:06:31;35.5;;;72.8;;
69636;SDS011;56860;51.144;16.954;2024-02-14T05:07:31;34.6;;;71.4;;
69636;SDS011;56860;51.144;16.954;2024-02-14T05:08:31;34.6;;;71.4;;
69636;SDS011;56860;51.144;16.954;2024-02-14T05:09:31;34.6;;;71.4;;
69636;SDS011;56860;51.144;16.954;2024-02-14T05:10:31;35.9;;;69.1;;
69636;SDS011;56860;51.144;16.954;2024-02-14T05:11:31;35.9;;;69.1;;
69636;SDS011;56860;51.144;16.954;2024-02-14T05:12:31;35.9;;;69.1;;
69636;SDS011;56860;51.144;16.954;2024-02-14T05:13:31;36.0;;;70.6;;
69636;SDS011;56860;51.144;16.954;2024-02-14T05:14:31;36.0;;;70.6;;
69636;SDS011;56860;51.144;16.954;2024-02-14T05:15:31;36.0;;;70.6;;
69636;SDS011;56860;51.144;16.954;2024-02-14T05:16:31;34.4;;;65.9;;
69636;SDS011;56860;51.144;16.954;2024-02-14T05:17:31;34.4;;;65.9;;
69636;SDS011;56860;51.144;16.954;2024-02-14T05:18:31;34.4;;;65.9;;
69636;SDS011;56860;51.144;16.954;2024-02-14T05:19:31;36.6;;;73.0;;
69636;SDS011;56860;51.144;16.954;2024-02-14T05:20:31;36.6;;;73.0;;
69636;SDS011;56860;51.144;16.954;2024-02-14T05:21:31;36.6;;;73.0;;
69636;SDS011;56860;51.144;16.954;2024-02-14T05:22:31;35.1;;;64.9;;
69636;SDS011;56860;51.144;16.954;2024-02-14T05:23:31;35.1;;;64.9;;
69636;SDS011;56860;51.144;16.954;2024-02-14T05:24:31;35.1;;;64.9;;
69636;SDS011;56860;51.144;16.954;2024-02-14T05:25:31;33.9;;;70.8;;
69636;SDS011;56860;51.144;16.954;2024-02-14T05:26:31;33.9;;;70.8;;
69636;SDS011;56860;51.144;16.954;2024-02-14T05:27:31;33.9;;;70.8;;
69636;SDS011;56860;51.144;16.954;2024-02-14T05:28:31;35.7;;;75.0;;
69636;SDS011;56860;51.144;16.954;2024-02-14T05:29:31;34.1;;;69.7;;
69636;SDS011;56860;51.144;16.954;2024-02-14T05:30:31;34.1;;;69.7;;
69636;SDS011;56860;51.144;16.954;2024-02-14T05:31:42;31.0;;;69.9;;
69636;SDS011;56860;51.144;16.954;2024-02-14T05:32:31;35.4;;;66.2;;
69636;SDS011;56860;51.144;16.954;2024-02-14T05:33:31;35.4;;;66.2;;
69636;SDS011;56860;51.144;16.954;2024-02-14T05:34:31;35.4;;;66.2;;
69636;SDS011;56860;51.144;16.954;2024-02-14T05:35:31;33.1;;;65.4;;
69636;SDS011;56860;51.144;16.954;2024-02-14T05:36:31;33.1;;;65.4;;
69636;SDS011;56860;51.144;16.954;2024-02-14T05:37:31;33.1;;;65.4;;
69636;SDS011;56860;51.144;16.954;2024-02-14T05:38:31;36.3;;;71.6;;
69636;SDS011;56860;51.144;16.954;2024-02-14T05:39:31;36.3;;;71.6;;
69636;SDS011;56860;51.144;16.954;2024-02-14T05:40:31;36.3;;;71.6;;
69636;SDS011;56860;51.144;16.954;2024-02-14T05:41:31;37.1;;;73.3;;
69636;SDS011;56860;51.144;16.954;2024-02-14T05:42:31;37.1;;;73.3;;
69636;SDS011;56860;51.144;16.954;2024-02-14T05:43:31;37.1;;;73.3;;
69636;SDS011;56860;51.144;16.954;2024-02-14T05:44:31;37.8;;;77.1;;
69636;SDS011;56860;51.144;16.954;2024-02-14T05:45:31;37.8;;;77.1;;
69636;SDS011;56860;51.144;16.954;2024-02-14T05:46:31;37.8;;;77.1;;
69636;SDS011;56860;51.144;16.954;2024-02-14T05:47:31;37.8;;;77.6;;
69636;SDS011;56860;51.144;16.954;2024-02-14T05:48:31;37.8;;;77.6;;
69636;SDS011;56860;51.144;16.954;2024-02-14T05:49:31;37.8;;;77.6;;
69636;SDS011;56860;51.144;16.954;2024-02-14T05:50:31;36.9;;;71.0;;
69636;SDS011;56860;51.144;16.954;2024-02-14T05:51:31;36.9;;;71.0;;
69636;SDS011;56860;51.144;16.954;2024-02-14T05:52:31;36.9;;;71.0;;
69636;SDS011;56860;51.144;16.954;2024-02-14T05:53:31;36.6;;;75.2;;
69636;SDS011;56860;51.144;16.954;2024-02-14T05:54:31;36.6;;;75.2;;
69636;SDS011;56860;51.144;16.954;2024-02-14T05:55:31;36.6;;;75.2;;
69636;SDS011;56860;51.144;16.954;2024-02-14T05:56:31;36.7;;;72.3;;
69636;SDS011;56860;51.144;16.954;2024-02-14T05:57:31;36.7;;;72.3;;